sensor_id;sensor_type;location;lat;lon;timestamp;pressure;altitude;pressure_sealevel;temperature;humidity
82458;BME280;72081;48.870;11.074;2023-08-24T00:01:48;97458.91;;;20.20;68.26
82458;BME280;72081;48.870;11.074;2023-08-24T00:04:14;97458.66;;;20.16;69.34
82458;BME280;72081;48.870;11.074;2023-08-24T00:06:39;97456.69;;;20.27;68.65
82458;BME280;72081;48.870;11.074;2023-08-24T00:09:04;97460.66;;;20.35;68.53
82458;BME280;72081;48.870;11.074;2023-08-24T00:11:30;97458.19;;;20.38;69.83
82458;BME280;72081;48.870;11.074;2023-08-24T00:13:56;97456.81;;;20.41;69.16
82458;BME280;72081;48.870;11.074;2023-08-24T00:16:21;97460.44;;;20.31;69.82
82458;BME280;72081;48.870;11.074;2023-08-24T00:18:47;97453.47;;;20.25;69.37
82458;BME280;72081;48.870;11.074;2023-08-24T00:21:15;97460.81;;;20.19;69.09
82458;BME280;72081;48.870;11.074;2023-08-24T00:23:48;97458.16;;;20.14;69.67
82458;BME280;72081;48.870;11.074;2023-08-24T00:26:13;97458.38;;;20.18;69.01
82458;BME280;72081;48.870;11.074;2023-08-24T00:28:39;97454.16;;;20.07;70.13
82458;BME280;72081;48.870;11.074;2023-08-24T00:31:04;97459.03;;;20.05;69.42
82458;BME280;72081;48.870;11.074;2023-08-24T00:33:29;97454.88;;;19.88;69.44
82458;BME280;72081;48.870;11.074;2023-08-24T00:35:59;97453.78;;;19.84;69.40
82458;BME280;72081;48.870;11.074;2023-08-24T00:38:25;97454.31;;;19.91;68.71
82458;BME280;72081;48.870;11.074;2023-08-24T00:40:50;97455.25;;;20.06;67.95
82458;BME280;72081;48.870;11.074;2023-08-24T00:43:18;97450.47;;;20.21;67.83
82458;BME280;72081;48.870;11.074;2023-08-24T00:45:43;97450.06;;;20.09;68.47
82458;BME280;72081;48.870;11.074;2023-08-24T00:48:09;97449.06;;;20.00;68.57
82458;BME280;72081;48.870;11.074;2023-08-24T00:50:34;97452.41;;;19.92;69.18
82458;BME280;72081;48.870;11.074;2023-08-24T00:53:00;97442.38;;;19.92;69.42
82458;BME280;72081;48.870;11.074;2023-08-24T00:55:25;97445.38;;;19.57;71.10
82458;BME280;72081;48.870;11.074;2023-08-24T00:57:52;97439.94;;;19.13;72.67
82458;BME280;72081;48.870;11.074;2023-08-24T01:00:17;97443.34;;;18.79;73.03
82458;BME280;72081;48.870;11.074;2023-08-24T01:02:42;97440.09;;;18.82;73.63
82458;BME280;72081;48.870;11.074;2023-08-24T01:05:08;97439.06;;;19.22;72.93
82458;BME280;72081;48.870;11.074;2023-08-24T01:07:34;97441.06;;;19.51;71.37
82458;BME280;72081;48.870;11.074;2023-08-24T01:10:02;97440.69;;;19.67;70.06
82458;BME280;72081;48.870;11.074;2023-08-24T01:12:48;97443.69;;;19.61;70.64
82458;BME280;72081;48.870;11.074;2023-08-24T01:17:58;97442.16;;;19.45;71.20
82458;BME280;72081;48.870;11.074;2023-08-24T01:20:26;97439.50;;;19.39;71.07
82458;BME280;72081;48.870;11.074;2023-08-24T01:23:09;97432.66;;;19.47;70.78
82458;BME280;72081;48.870;11.074;2023-08-24T01:25:48;97447.66;;;19.34;71.48
82458;BME280;72081;48.870;11.074;2023-08-24T01:28:16;97433.28;;;19.39;71.00
82458;BME280;72081;48.870;11.074;2023-08-24T01:30:44;97438.44;;;19.35;71.04
82458;BME280;72081;48.870;11.074;2023-08-24T01:33:09;97433.91;;;19.26;71.80
82458;BME280;72081;48.870;11.074;2023-08-24T01:35:37;97430.84;;;19.37;71.20
82458;BME280;72081;48.870;11.074;2023-08-24T01:38:02;97433.56;;;19.37;70.75
82458;BME280;72081;48.870;11.074;2023-08-24T01:43:25;97435.25;;;19.28;70.78
82458;BME280;72081;48.870;11.074;2023-08-24T01:45:55;97435.25;;;19.28;70.88
82458;BME280;72081;48.870;11.074;2023-08-24T01:48:21;97437.75;;;19.15;71.43
82458;BME280;72081;48.870;11.074;2023-08-24T01:50:47;97425.63;;;19.12;71.34
82458;BME280;72081;48.870;11.074;2023-08-24T01:53:12;97428.03;;;19.14;70.67
82458;BME280;72081;48.870;11.074;2023-08-24T01:55:38;97428.56;;;19.16;71.29
82458;BME280;72081;48.870;11.074;2023-08-24T01:58:03;97422.09;;;19.06;71.72
82458;BME280;72081;48.870;11.074;2023-08-24T02:00:28;97419.94;;;19.08;71.15
82458;BME280;72081;48.870;11.074;2023-08-24T02:04:29;97414.38;;;18.90;71.87
82458;BME280;72081;48.870;11.074;2023-08-24T02:06:54;97414.09;;;18.86;72.12
82458;BME280;72081;48.870;11.074;2023-08-24T02:09:19;97411.19;;;18.77;72.58
82458;BME280;72081;48.870;11.074;2023-08-24T02:11:44;97406.78;;;18.92;71.95
82458;BME280;72081;48.870;11.074;2023-08-24T02:14:10;97418.25;;;18.73;72.34
82458;BME280;72081;48.870;11.074;2023-08-24T02:16:35;97407.88;;;18.91;72.00
82458;BME280;72081;48.870;11.074;2023-08-24T02:19:01;97398.28;;;19.08;70.85
82458;BME280;72081;48.870;11.074;2023-08-24T02:21:26;97400.00;;;18.94;71.72
82458;BME280;72081;48.870;11.074;2023-08-24T02:23:51;97406.19;;;19.00;70.88
82458;BME280;72081;48.870;11.074;2023-08-24T02:26:17;97403.63;;;18.74;71.25
82458;BME280;72081;48.870;11.074;2023-08-24T02:28:42;97406.09;;;18.71;72.25
82458;BME280;72081;48.870;11.074;2023-08-24T02:31:07;97407.06;;;18.85;71.36
82458;BME280;72081;48.870;11.074;2023-08-24T02:33:33;97401.09;;;18.88;70.83
82458;BME280;72081;48.870;11.074;2023-08-24T02:35:58;97400.31;;;18.88;70.59
82458;BME280;72081;48.870;11.074;2023-08-24T02:38:24;97407.03;;;18.95;70.34
82458;BME280;72081;48.870;11.074;2023-08-24T02:40:49;97403.28;;;18.86;70.82
82458;BME280;72081;48.870;11.074;2023-08-24T02:43:15;97398.97;;;18.85;70.81
82458;BME280;72081;48.870;11.074;2023-08-24T02:45:40;97402.56;;;18.65;71.11
82458;BME280;72081;48.870;11.074;2023-08-24T02:48:05;97403.66;;;18.59;71.86
82458;BME280;72081;48.870;11.074;2023-08-24T02:50:31;97403.16;;;18.52;72.03
82458;BME280;72081;48.870;11.074;2023-08-24T02:52:56;97401.00;;;18.44;72.53
82458;BME280;72081;48.870;11.074;2023-08-24T02:55:23;97405.28;;;18.60;71.51
82458;BME280;72081;48.870;11.074;2023-08-24T02:57:49;97398.50;;;18.68;71.47
82458;BME280;72081;48.870;11.074;2023-08-24T03:00:14;97397.72;;;18.57;71.25
82458;BME280;72081;48.870;11.074;2023-08-24T03:02:39;97403.44;;;18.45;71.88
82458;BME280;72081;48.870;11.074;2023-08-24T03:05:05;97408.91;;;18.25;72.41
82458;BME280;72081;48.870;11.074;2023-08-24T03:07:30;97411.91;;;18.18;72.03
82458;BME280;72081;48.870;11.074;2023-08-24T03:09:56;97407.31;;;18.19;72.81
82458;BME280;72081;48.870;11.074;2023-08-24T03:12:21;97411.34;;;18.27;72.55
82458;BME280;72081;48.870;11.074;2023-08-24T03:14:46;97401.59;;;18.31;72.37
82458;BME280;72081;48.870;11.074;2023-08-24T03:17:11;97412.91;;;18.43;72.24
82458;BME280;72081;48.870;11.074;2023-08-24T03:19:37;97407.25;;;18.39;71.75
82458;BME280;72081;48.870;11.074;2023-08-24T03:22:02;97409.69;;;18.36;72.54
82458;BME280;72081;48.870;11.074;2023-08-24T03:24:27;97418.09;;;18.34;72.79
82458;BME280;72081;48.870;11.074;2023-08-24T03:26:53;97412.69;;;18.24;72.56
82458;BME280;72081;48.870;11.074;2023-08-24T03:29:18;97411.06;;;18.28;72.33
82458;BME280;72081;48.870;11.074;2023-08-24T03:31:43;97415.38;;;18.29;72.45
82458;BME280;72081;48.870;11.074;2023-08-24T03:34:08;97413.19;;;18.31;72.72
82458;BME280;72081;48.870;11.074;2023-08-24T03:36:34;97413.75;;;18.33;72.42
82458;BME280;72081;48.870;11.074;2023-08-24T03:38:59;97418.09;;;18.34;72.28
82458;BME280;72081;48.870;11.074;2023-08-24T03:41:24;97419.97;;;18.29;72.38
82458;BME280;72081;48.870;11.074;2023-08-24T03:43:49;97423.78;;;18.17;72.06
82458;BME280;72081;48.870;11.074;2023-08-24T03:46:15;97429.47;;;18.16;72.53
82458;BME280;72081;48.870;11.074;2023-08-24T03:48:40;97424.31;;;18.25;71.80
82458;BME280;72081;48.870;11.074;2023-08-24T03:51:05;97426.75;;;18.21;72.40
82458;BME280;72081;48.870;11.074;2023-08-24T03:53:31;97420.00;;;18.18;72.32
82458;BME280;72081;48.870;11.074;2023-08-24T03:55:57;97416.25;;;18.14;72.58
82458;BME280;72081;48.870;11.074;2023-08-24T03:58:23;97414.34;;;18.05;72.99
82458;BME280;72081;48.870;11.074;2023-08-24T04:00:49;97415.16;;;18.15;72.22
82458;BME280;72081;48.870;11.074;2023-08-24T04:03:14;97417.03;;;18.20;72.09
82458;BME280;72081;48.870;11.074;2023-08-24T04:05:39;97410.28;;;18.17;72.34
82458;BME280;72081;48.870;11.074;2023-08-24T04:08:05;97407.59;;;18.17;72.22
82458;BME280;72081;48.870;11.074;2023-08-24T04:10:30;97395.94;;;18.27;72.16
82458;BME280;72081;48.870;11.074;2023-08-24T04:12:56;97402.97;;;18.33;71.66
82458;BME280;72081;48.870;11.074;2023-08-24T04:15:21;97394.84;;;18.28;71.91
82458;BME280;72081;48.870;11.074;2023-08-24T04:17:48;97394.09;;;18.17;71.38
82458;BME280;72081;48.870;11.074;2023-08-24T04:20:13;97400.63;;;17.96;72.31
82458;BME280;72081;48.870;11.074;2023-08-24T04:22:38;97399.03;;;17.75;73.04
82458;BME280;72081;48.870;11.074;2023-08-24T04:25:04;97394.16;;;17.77;72.79
82458;BME280;72081;48.870;11.074;2023-08-24T04:27:30;97397.94;;;17.81;73.15
82458;BME280;72081;48.870;11.074;2023-08-24T04:29:55;97394.69;;;17.79;73.62
82458;BME280;72081;48.870;11.074;2023-08-24T04:32:22;97401.16;;;17.98;72.51
82458;BME280;72081;48.870;11.074;2023-08-24T04:34:47;97400.06;;;17.99;71.90
82458;BME280;72081;48.870;11.074;2023-08-24T04:37:13;97401.94;;;17.99;72.26
82458;BME280;72081;48.870;11.074;2023-08-24T04:39:38;97398.97;;;18.00;72.26
82458;BME280;72081;48.870;11.074;2023-08-24T04:42:03;97392.25;;;17.87;72.57
82458;BME280;72081;48.870;11.074;2023-08-24T04:44:29;97387.13;;;17.81;72.78
82458;BME280;72081;48.870;11.074;2023-08-24T04:46:55;97398.22;;;17.74;72.98
82458;BME280;72081;48.870;11.074;2023-08-24T04:49:20;97390.91;;;17.80;72.62
82458;BME280;72081;48.870;11.074;2023-08-24T04:53:19;97389.56;;;17.82;72.60
82458;BME280;72081;48.870;11.074;2023-08-24T04:55:45;97385.78;;;17.94;72.34
82458;BME280;72081;48.870;11.074;2023-08-24T04:58:11;97386.03;;;17.87;71.75
82458;BME280;72081;48.870;11.074;2023-08-24T05:00:37;97389.81;;;17.96;72.27
82458;BME280;72081;48.870;11.074;2023-08-24T05:03:04;97391.13;;;18.14;71.58
82458;BME280;72081;48.870;11.074;2023-08-24T05:05:30;97390.81;;;18.20;71.39
82458;BME280;72081;48.870;11.074;2023-08-24T05:07:56;97387.38;;;17.95;72.27
82458;BME280;72081;48.870;11.074;2023-08-24T05:10:22;97382.28;;;17.78;72.85
82458;BME280;72081;48.870;11.074;2023-08-24T05:12:47;97378.47;;;17.89;72.48
82458;BME280;72081;48.870;11.074;2023-08-24T05:15:12;97379.00;;;17.86;72.44
82458;BME280;72081;48.870;11.074;2023-08-24T05:17:39;97371.44;;;17.98;72.07
82458;BME280;72081;48.870;11.074;2023-08-24T05:20:04;97381.13;;;18.14;72.11
82458;BME280;72081;48.870;11.074;2023-08-24T05:22:30;97390.50;;;18.37;70.83
82458;BME280;72081;48.870;11.074;2023-08-24T05:24:55;97376.66;;;18.54;70.17
82458;BME280;72081;48.870;11.074;2023-08-24T05:27:20;97375.28;;;18.57;70.14
82458;BME280;72081;48.870;11.074;2023-08-24T05:29:46;97371.75;;;18.66;69.63
82458;BME280;72081;48.870;11.074;2023-08-24T05:32:11;97375.97;;;18.88;69.51
82458;BME280;72081;48.870;11.074;2023-08-24T05:34:36;97386.44;;;18.99;68.88
82458;BME280;72081;48.870;11.074;2023-08-24T05:37:01;97384.28;;;19.75;66.73
82458;BME280;72081;48.870;11.074;2023-08-24T05:39:27;97383.31;;;20.18;65.38
82458;BME280;72081;48.870;11.074;2023-08-24T05:41:52;97382.72;;;20.50;63.71
82458;BME280;72081;48.870;11.074;2023-08-24T05:44:20;97384.72;;;20.64;62.97
82458;BME280;72081;48.870;11.074;2023-08-24T05:46:46;97379.31;;;21.01;61.04
82458;BME280;72081;48.870;11.074;2023-08-24T05:49:12;97376.84;;;21.24;61.31
82458;BME280;72081;48.870;11.074;2023-08-24T05:51:38;97368.03;;;21.97;59.16
82458;BME280;72081;48.870;11.074;2023-08-24T05:54:03;97375.66;;;21.95;58.84
82458;BME280;72081;48.870;11.074;2023-08-24T05:56:28;97373.19;;;21.98;59.40
82458;BME280;72081;48.870;11.074;2023-08-24T05:58:54;97362.88;;;22.41;57.56
82458;BME280;72081;48.870;11.074;2023-08-24T06:01:20;97371.81;;;22.83;56.83
82458;BME280;72081;48.870;11.074;2023-08-24T06:03:45;97376.84;;;23.26;54.92
82458;BME280;72081;48.870;11.074;2023-08-24T06:06:10;97370.31;;;23.13;55.80
82458;BME280;72081;48.870;11.074;2023-08-24T06:08:36;97374.88;;;23.40;54.62
82458;BME280;72081;48.870;11.074;2023-08-24T06:11:01;97372.75;;;23.73;54.22
82458;BME280;72081;48.870;11.074;2023-08-24T06:13:27;97369.81;;;23.70;54.42
82458;BME280;72081;48.870;11.074;2023-08-24T06:15:52;97371.41;;;23.93;52.99
82458;BME280;72081;48.870;11.074;2023-08-24T06:18:18;97373.72;;;24.08;53.21
82458;BME280;72081;48.870;11.074;2023-08-24T06:20:43;97364.88;;;23.13;56.14
82458;BME280;72081;48.870;11.074;2023-08-24T06:23:08;97370.59;;;22.07;59.78
82458;BME280;72081;48.870;11.074;2023-08-24T06:25:35;97370.91;;;21.21;61.99
82458;BME280;72081;48.870;11.074;2023-08-24T06:28:00;97369.84;;;21.17;62.32
82458;BME280;72081;48.870;11.074;2023-08-24T06:30:28;97369.75;;;21.28;61.76
82458;BME280;72081;48.870;11.074;2023-08-24T06:32:54;97362.78;;;21.54;61.96
82458;BME280;72081;48.870;11.074;2023-08-24T06:35:19;97358.13;;;21.73;61.84
82458;BME280;72081;48.870;11.074;2023-08-24T06:37:44;97362.88;;;21.81;61.54
82458;BME280;72081;48.870;11.074;2023-08-24T06:40:10;97357.81;;;22.35;60.80
82458;BME280;72081;48.870;11.074;2023-08-24T06:42:35;97350.22;;;23.00;58.23
82458;BME280;72081;48.870;11.074;2023-08-24T06:45:01;97350.09;;;23.06;57.85
82458;BME280;72081;48.870;11.074;2023-08-24T06:47:26;97346.47;;;22.19;60.00
82458;BME280;72081;48.870;11.074;2023-08-24T06:49:51;97341.97;;;21.82;62.68
82458;BME280;72081;48.870;11.074;2023-08-24T06:52:16;97336.66;;;21.58;63.64
82458;BME280;72081;48.870;11.074;2023-08-24T06:54:42;97329.00;;;21.46;64.67
82458;BME280;72081;48.870;11.074;2023-08-24T06:57:07;97322.47;;;21.47;64.48
82458;BME280;72081;48.870;11.074;2023-08-24T06:59:32;97310.22;;;21.64;64.72
82458;BME280;72081;48.870;11.074;2023-08-24T07:01:58;97301.03;;;22.06;64.32
82458;BME280;72081;48.870;11.074;2023-08-24T07:04:23;97302.44;;;22.45;62.08
82458;BME280;72081;48.870;11.074;2023-08-24T07:06:48;97302.47;;;23.17;60.99
82458;BME280;72081;48.870;11.074;2023-08-24T07:09:14;97304.88;;;23.94;58.66
82458;BME280;72081;48.870;11.074;2023-08-24T07:11:40;97305.22;;;24.41;56.59
82458;BME280;72081;48.870;11.074;2023-08-24T07:14:05;97307.53;;;24.73;54.04
82458;BME280;72081;48.870;11.074;2023-08-24T07:16:31;97314.63;;;25.18;54.68
82458;BME280;72081;48.870;11.074;2023-08-24T07:18:56;97316.53;;;25.43;54.37
82458;BME280;72081;48.870;11.074;2023-08-24T07:21:21;97302.97;;;25.64;53.48
82458;BME280;72081;48.870;11.074;2023-08-24T07:23:47;97299.00;;;25.53;51.65
82458;BME280;72081;48.870;11.074;2023-08-24T07:26:12;97305.91;;;25.41;53.37
82458;BME280;72081;48.870;11.074;2023-08-24T07:28:37;97306.44;;;25.00;51.63
82458;BME280;72081;48.870;11.074;2023-08-24T07:31:09;97302.56;;;25.01;52.15
82458;BME280;72081;48.870;11.074;2023-08-24T07:33:38;97309.97;;;25.27;53.55
82458;BME280;72081;48.870;11.074;2023-08-24T07:36:06;97312.00;;;25.73;52.35
82458;BME280;72081;48.870;11.074;2023-08-24T07:38:32;97307.72;;;26.01;51.64
82458;BME280;72081;48.870;11.074;2023-08-24T07:42:02;97298.75;;;26.30;51.10
82458;BME280;72081;48.870;11.074;2023-08-24T07:44:28;97296.53;;;26.53;49.95
82458;BME280;72081;48.870;11.074;2023-08-24T07:46:53;97285.22;;;26.64;49.52
82458;BME280;72081;48.870;11.074;2023-08-24T07:49:18;97292.50;;;26.80;49.40
82458;BME280;72081;48.870;11.074;2023-08-24T07:51:43;97297.91;;;26.89;47.78
82458;BME280;72081;48.870;11.074;2023-08-24T07:54:09;97293.34;;;27.02;48.59
82458;BME280;72081;48.870;11.074;2023-08-24T07:56:35;97297.66;;;26.61;47.72
82458;BME280;72081;48.870;11.074;2023-08-24T07:59:01;97299.44;;;26.99;48.86
82458;BME280;72081;48.870;11.074;2023-08-24T08:01:26;97303.38;;;27.31;46.51
82458;BME280;72081;48.870;11.074;2023-08-24T08:03:52;97309.84;;;27.47;46.54
82458;BME280;72081;48.870;11.074;2023-08-24T08:06:17;97306.75;;;27.15;47.48
82458;BME280;72081;48.870;11.074;2023-08-24T08:08:43;97304.53;;;27.30;45.34
82458;BME280;72081;48.870;11.074;2023-08-24T08:11:09;97306.38;;;27.38;46.42
82458;BME280;72081;48.870;11.074;2023-08-24T08:13:35;97304.19;;;27.31;44.91
82458;BME280;72081;48.870;11.074;2023-08-24T08:16:03;97310.56;;;27.56;43.40
82458;BME280;72081;48.870;11.074;2023-08-24T08:18:29;97308.63;;;27.90;44.26
82458;BME280;72081;48.870;11.074;2023-08-24T08:20:54;97313.56;;;27.96;42.01
82458;BME280;72081;48.870;11.074;2023-08-24T08:23:20;97309.50;;;27.69;45.27
82458;BME280;72081;48.870;11.074;2023-08-24T08:25:45;97309.16;;;27.50;43.89
82458;BME280;72081;48.870;11.074;2023-08-24T08:28:10;97314.50;;;27.13;46.25
82458;BME280;72081;48.870;11.074;2023-08-24T08:30:36;97319.38;;;27.08;44.38
82458;BME280;72081;48.870;11.074;2023-08-24T08:33:01;97314.59;;;26.96;45.48
82458;BME280;72081;48.870;11.074;2023-08-24T08:35:26;97322.25;;;27.32;43.94
82458;BME280;72081;48.870;11.074;2023-08-24T08:37:52;97309.06;;;27.92;42.43
82458;BME280;72081;48.870;11.074;2023-08-24T08:40:18;97319.75;;;28.18;41.90
82458;BME280;72081;48.870;11.074;2023-08-24T08:42:44;97325.44;;;28.12;42.39
82458;BME280;72081;48.870;11.074;2023-08-24T08:45:10;97317.81;;;28.30;40.41
82458;BME280;72081;48.870;11.074;2023-08-24T08:47:36;97316.47;;;28.36;41.26
82458;BME280;72081;48.870;11.074;2023-08-24T08:50:03;97310.00;;;28.08;42.33
82458;BME280;72081;48.870;11.074;2023-08-24T08:52:29;97310.50;;;28.22;40.94
82458;BME280;72081;48.870;11.074;2023-08-24T08:54:54;97303.63;;;28.04;41.95
82458;BME280;72081;48.870;11.074;2023-08-24T08:57:22;97300.88;;;28.16;42.86
82458;BME280;72081;48.870;11.074;2023-08-24T08:59:48;97285.09;;;28.01;41.72
82458;BME280;72081;48.870;11.074;2023-08-24T09:02:16;97282.75;;;27.12;42.79
82458;BME280;72081;48.870;11.074;2023-08-24T09:04:44;97275.75;;;27.24;44.01
82458;BME280;72081;48.870;11.074;2023-08-24T09:07:10;97274.44;;;27.54;43.04
82458;BME280;72081;48.870;11.074;2023-08-24T09:09:38;97264.50;;;28.07;43.66
82458;BME280;72081;48.870;11.074;2023-08-24T09:12:05;97263.72;;;28.31;41.58
82458;BME280;72081;48.870;11.074;2023-08-24T09:14:30;97266.59;;;28.34;42.32
82458;BME280;72081;48.870;11.074;2023-08-24T09:16:56;97271.38;;;28.50;42.77
82458;BME280;72081;48.870;11.074;2023-08-24T09:19:27;97268.06;;;28.56;41.57
82458;BME280;72081;48.870;11.074;2023-08-24T09:21:56;97262.44;;;28.65;41.63
82458;BME280;72081;48.870;11.074;2023-08-24T09:24:37;97272.06;;;28.59;41.45
82458;BME280;72081;48.870;11.074;2023-08-24T09:27:21;97265.63;;;28.67;41.74
82458;BME280;72081;48.870;11.074;2023-08-24T09:29:50;97264.75;;;28.51;42.16
82458;BME280;72081;48.870;11.074;2023-08-24T09:32:42;97265.06;;;28.61;40.36
82458;BME280;72081;48.870;11.074;2023-08-24T09:35:09;97250.81;;;28.96;40.15
82458;BME280;72081;48.870;11.074;2023-08-24T09:37:36;97260.41;;;29.30;42.57
82458;BME280;72081;48.870;11.074;2023-08-24T09:40:03;97250.63;;;28.77;40.30
82458;BME280;72081;48.870;11.074;2023-08-24T09:42:37;97259.63;;;28.37;42.42
82458;BME280;72081;48.870;11.074;2023-08-24T09:45:03;97238.31;;;28.46;40.83
82458;BME280;72081;48.870;11.074;2023-08-24T09:47:33;97237.81;;;28.68;40.43
82458;BME280;72081;48.870;11.074;2023-08-24T09:49:59;97242.59;;;28.71;40.86
82458;BME280;72081;48.870;11.074;2023-08-24T09:52:26;97250.38;;;28.94;40.44
82458;BME280;72081;48.870;11.074;2023-08-24T09:54:57;97230.97;;;29.02;39.51
82458;BME280;72081;48.870;11.074;2023-08-24T09:57:23;97228.50;;;28.97;39.99
82458;BME280;72081;48.870;11.074;2023-08-24T09:59:49;97223.25;;;28.92;43.11
82458;BME280;72081;48.870;11.074;2023-08-24T10:02:20;97226.47;;;29.10;39.49
82458;BME280;72081;48.870;11.074;2023-08-24T10:04:46;97225.00;;;29.28;41.85
82458;BME280;72081;48.870;11.074;2023-08-24T10:07:13;97215.53;;;29.54;39.78
82458;BME280;72081;48.870;11.074;2023-08-24T10:09:54;97224.56;;;29.26;38.70
82458;BME280;72081;48.870;11.074;2023-08-24T10:12:24;97210.63;;;29.47;40.79
82458;BME280;72081;48.870;11.074;2023-08-24T10:15:02;97201.50;;;29.75;39.21
82458;BME280;72081;48.870;11.074;2023-08-24T10:17:36;97202.28;;;29.59;39.79
82458;BME280;72081;48.870;11.074;2023-08-24T10:20:02;97210.09;;;29.14;41.28
82458;BME280;72081;48.870;11.074;2023-08-24T10:22:31;97197.81;;;29.39;40.25
82458;BME280;72081;48.870;11.074;2023-08-24T10:24:59;97192.66;;;29.38;39.29
82458;BME280;72081;48.870;11.074;2023-08-24T10:27:26;97196.78;;;29.59;40.55
82458;BME280;72081;48.870;11.074;2023-08-24T10:30:49;97183.41;;;29.74;38.76
82458;BME280;72081;48.870;11.074;2023-08-24T10:33:15;97178.41;;;29.64;40.25
82458;BME280;72081;48.870;11.074;2023-08-24T10:35:41;97170.28;;;29.51;40.02
82458;BME280;72081;48.870;11.074;2023-08-24T10:38:07;97159.88;;;29.60;39.99
82458;BME280;72081;48.870;11.074;2023-08-24T10:40:36;97142.06;;;29.70;39.70
82458;BME280;72081;48.870;11.074;2023-08-24T10:43:05;97141.31;;;29.89;40.74
82458;BME280;72081;48.870;11.074;2023-08-24T10:45:57;97135.97;;;29.96;40.30
82458;BME280;72081;48.870;11.074;2023-08-24T10:48:24;97144.25;;;29.80;42.52
82458;BME280;72081;48.870;11.074;2023-08-24T10:53:55;97146.19;;;29.80;40.52
82458;BME280;72081;48.870;11.074;2023-08-24T10:56:21;97144.34;;;29.68;42.13
82458;BME280;72081;48.870;11.074;2023-08-24T10:58:47;97143.34;;;29.92;43.09
82458;BME280;72081;48.870;11.074;2023-08-24T11:01:32;97132.41;;;30.11;40.57
82458;BME280;72081;48.870;11.074;2023-08-24T11:03:57;97128.44;;;30.09;41.77
82458;BME280;72081;48.870;11.074;2023-08-24T11:06:25;97125.84;;;30.00;41.53
82458;BME280;72081;48.870;11.074;2023-08-24T11:09:05;97122.78;;;30.21;42.03
82458;BME280;72081;48.870;11.074;2023-08-24T11:11:32;97126.63;;;30.16;39.97
82458;BME280;72081;48.870;11.074;2023-08-24T11:14:32;97129.81;;;30.18;39.88
82458;BME280;72081;48.870;11.074;2023-08-24T11:17:20;97132.97;;;29.85;41.55
82458;BME280;72081;48.870;11.074;2023-08-24T11:19:53;97121.47;;;29.99;40.86
82458;BME280;72081;48.870;11.074;2023-08-24T11:22:18;97114.66;;;30.09;41.95
82458;BME280;72081;48.870;11.074;2023-08-24T11:24:44;97105.03;;;30.03;40.88
82458;BME280;72081;48.870;11.074;2023-08-24T11:27:09;97107.06;;;30.21;40.88
82458;BME280;72081;48.870;11.074;2023-08-24T11:29:35;97118.75;;;30.34;41.53
82458;BME280;72081;48.870;11.074;2023-08-24T11:32:00;97111.63;;;30.14;42.48
82458;BME280;72081;48.870;11.074;2023-08-24T11:34:26;97118.69;;;30.50;40.82
82458;BME280;72081;48.870;11.074;2023-08-24T11:36:52;97104.69;;;30.39;42.02
82458;BME280;72081;48.870;11.074;2023-08-24T11:39:20;97100.59;;;30.68;40.23
82458;BME280;72081;48.870;11.074;2023-08-24T11:42:03;97103.78;;;30.70;40.51
82458;BME280;72081;48.870;11.074;2023-08-24T11:44:30;97090.97;;;30.24;41.47
82458;BME280;72081;48.870;11.074;2023-08-24T11:46:56;97099.31;;;30.27;41.12
82458;BME280;72081;48.870;11.074;2023-08-24T11:49:23;97087.28;;;30.55;41.83
82458;BME280;72081;48.870;11.074;2023-08-24T11:51:48;97082.56;;;30.55;40.86
82458;BME280;72081;48.870;11.074;2023-08-24T11:54:16;97089.59;;;30.91;40.41
82458;BME280;72081;48.870;11.074;2023-08-24T11:56:42;97099.97;;;30.78;40.83
82458;BME280;72081;48.870;11.074;2023-08-24T11:59:15;97099.81;;;30.91;39.86
82458;BME280;72081;48.870;11.074;2023-08-24T12:01:40;97099.84;;;30.71;40.54
82458;BME280;72081;48.870;11.074;2023-08-24T12:04:06;97100.63;;;30.52;41.23
82458;BME280;72081;48.870;11.074;2023-08-24T12:06:33;97100.28;;;30.73;40.86
82458;BME280;72081;48.870;11.074;2023-08-24T12:08:58;97081.31;;;30.91;40.90
82458;BME280;72081;48.870;11.074;2023-08-24T12:11:23;97073.56;;;31.20;39.54
82458;BME280;72081;48.870;11.074;2023-08-24T12:13:52;97085.53;;;31.27;40.92
82458;BME280;72081;48.870;11.074;2023-08-24T12:16:18;97079.13;;;31.00;40.37
82458;BME280;72081;48.870;11.074;2023-08-24T12:18:49;97076.94;;;31.09;39.23
82458;BME280;72081;48.870;11.074;2023-08-24T12:21:14;97074.00;;;31.22;39.70
82458;BME280;72081;48.870;11.074;2023-08-24T12:23:39;97072.22;;;31.33;38.52
82458;BME280;72081;48.870;11.074;2023-08-24T12:26:05;97056.47;;;31.33;37.89
82458;BME280;72081;48.870;11.074;2023-08-24T12:28:33;97054.50;;;31.34;39.30
82458;BME280;72081;48.870;11.074;2023-08-24T12:30:58;97056.91;;;31.62;38.83
82458;BME280;72081;48.870;11.074;2023-08-24T12:33:28;97046.19;;;31.30;39.02
82458;BME280;72081;48.870;11.074;2023-08-24T12:35:55;97045.84;;;31.13;38.91
82458;BME280;72081;48.870;11.074;2023-08-24T12:38:21;97039.09;;;30.64;40.42
82458;BME280;72081;48.870;11.074;2023-08-24T12:40:47;97039.03;;;30.84;39.56
82458;BME280;72081;48.870;11.074;2023-08-24T12:43:13;97028.09;;;31.33;38.64
82458;BME280;72081;48.870;11.074;2023-08-24T12:45:39;97026.69;;;31.99;37.09
82458;BME280;72081;48.870;11.074;2023-08-24T12:48:05;97022.94;;;32.14;35.86
82458;BME280;72081;48.870;11.074;2023-08-24T12:50:30;97019.91;;;32.23;35.90
82458;BME280;72081;48.870;11.074;2023-08-24T12:52:55;97021.38;;;32.13;36.84
82458;BME280;72081;48.870;11.074;2023-08-24T12:55:24;97017.34;;;32.07;36.98
82458;BME280;72081;48.870;11.074;2023-08-24T12:57:50;97007.78;;;31.71;37.39
82458;BME280;72081;48.870;11.074;2023-08-24T13:00:15;97002.22;;;31.97;36.42
82458;BME280;72081;48.870;11.074;2023-08-24T13:02:40;97004.75;;;32.10;36.59